createdAt,value
2019-05-30T00:04:51.906Z,51.50
2019-05-30T00:14:57.193Z,52.20
2019-05-30T00:25:02.546Z,52.10
2019-05-30T00:35:08.417Z,52.20
2019-05-30T00:45:21.051Z,52.30
2019-05-30T00:55:20.820Z,52.40
2019-05-30T01:05:27.243Z,52.40
2019-05-30T01:15:32.631Z,52.70
2019-05-30T01:25:38.273Z,52.80
2019-05-30T01:35:43.743Z,53.10
2019-05-30T01:45:49.214Z,53.00
2019-05-30T01:55:54.647Z,53.40
2019-05-30T02:06:01.051Z,53.60
2019-05-30T02:16:07.738Z,53.50
2019-05-30T02:26:13.282Z,53.70
2019-05-30T02:36:18.763Z,53.70
2019-05-30T02:46:24.014Z,53.80
2019-05-30T02:56:29.271Z,53.90
2019-05-30T03:06:34.632Z,54.00
2019-05-30T03:16:40.331Z,54.00
2019-05-30T03:26:45.631Z,54.20
2019-05-30T03:36:51.653Z,54.40
2019-05-30T03:46:59.953Z,54.40
2019-05-30T03:57:15.478Z,54.50
2019-05-30T04:07:24.120Z,54.50
2019-05-30T04:17:29.722Z,54.40
2019-05-30T04:27:34.955Z,54.30
2019-05-30T04:37:40.206Z,54.10
2019-05-30T04:47:45.458Z,54.00
2019-05-30T04:57:50.840Z,54.00
2019-05-30T05:07:56.087Z,53.80
2019-05-30T05:18:01.362Z,53.60
2019-05-30T05:28:06.631Z,53.40
2019-05-30T05:38:12.291Z,53.10
2019-05-30T05:48:18.378Z,53.00
2019-05-30T05:58:26.498Z,52.80
2019-05-30T06:08:31.547Z,52.30
2019-05-30T06:18:36.822Z,52.10
2019-05-30T06:28:42.138Z,51.80
2019-05-30T06:38:47.511Z,51.50
2019-05-30T06:48:52.835Z,51.30
2019-05-30T06:58:58.154Z,50.90
2019-05-30T07:09:03.886Z,50.70
2019-05-30T07:19:09.252Z,50.40
2019-05-30T07:29:14.527Z,50.20
2019-05-30T07:39:20.198Z,50.10
2019-05-30T07:49:26.277Z,49.90
2019-05-30T07:59:32.468Z,49.60
2019-05-30T08:09:39.186Z,49.40
2019-05-30T08:19:44.605Z,49.10
2019-05-30T08:29:49.919Z,48.80
2019-05-30T08:39:55.234Z,48.40
2019-05-30T08:50:00.499Z,48.00
2019-05-30T09:00:06.986Z,48.30
2019-05-30T09:10:15.425Z,47.00
2019-05-30T09:20:21.580Z,46.20
2019-05-30T09:30:27.733Z,45.20
2019-05-30T09:40:34.569Z,44.80
2019-05-30T09:50:40.975Z,44.50
2019-05-30T10:00:48.482Z,44.00
2019-05-30T10:10:53.967Z,43.40
2019-05-30T10:20:59.242Z,43.00
2019-05-30T10:31:04.680Z,42.00
2019-05-30T10:41:28.303Z,40.50
2019-05-30T10:51:33.571Z,38.80
2019-05-30T11:01:38.947Z,38.10
2019-05-30T11:11:44.495Z,37.30
2019-05-30T11:21:50.271Z,36.20
2019-05-30T11:31:55.605Z,36.20
2019-05-30T11:42:00.847Z,35.30
2019-05-30T11:52:06.189Z,34.40
2019-05-30T12:02:11.883Z,33.40
2019-05-30T12:12:17.714Z,33.00
2019-05-30T12:22:22.991Z,32.70
2019-05-30T12:32:28.450Z,32.10
2019-05-30T12:42:33.730Z,32.80
2019-05-30T12:52:39.068Z,32.20
2019-05-30T13:02:44.404Z,31.80
2019-05-30T13:12:49.947Z,32.10
2019-05-30T13:22:56.281Z,31.90
2019-05-30T13:33:03.044Z,32.20
2019-05-30T13:43:08.998Z,32.10
2019-05-30T13:53:14.577Z,31.80
2019-05-30T14:03:19.904Z,31.70
2019-05-30T14:13:25.160Z,31.50
2019-05-30T14:23:30.535Z,31.50
2019-05-30T14:33:35.894Z,31.70
2019-05-30T14:43:41.157Z,30.80
2019-05-30T14:53:46.660Z,31.60
2019-05-30T15:03:52.219Z,31.00
2019-05-30T15:13:57.520Z,31.20
2019-05-30T15:24:03.039Z,31.50
2019-05-30T15:34:08.523Z,31.60
2019-05-30T15:44:14.111Z,32.20
2019-05-30T15:54:19.367Z,32.40
2019-05-30T16:04:24.691Z,34.00
2019-05-30T16:14:29.975Z,33.50
2019-05-30T16:24:35.273Z,33.60
2019-05-30T16:34:40.588Z,34.00
2019-05-30T16:44:45.892Z,34.20
2019-05-30T16:54:51.239Z,34.40
2019-05-30T17:04:56.845Z,34.90
2019-05-30T17:15:02.253Z,35.10
2019-05-30T17:25:08.246Z,35.60
2019-05-30T17:35:13.815Z,36.10
2019-05-30T17:45:19.332Z,36.60
2019-05-30T17:55:24.592Z,37.10
2019-05-30T18:05:30.963Z,37.70
2019-05-30T18:15:36.483Z,38.00
2019-05-30T18:25:41.719Z,38.20
2019-05-30T18:35:47.419Z,38.60
2019-05-30T18:45:52.984Z,39.00
2019-05-30T18:55:58.351Z,39.20
2019-05-30T19:06:04.088Z,39.70
2019-05-30T19:16:09.598Z,40.00
2019-05-30T19:26:15.023Z,40.30
2019-05-30T19:36:20.566Z,40.60
2019-05-30T19:46:26.166Z,40.70
2019-05-30T19:56:31.485Z,41.00
2019-05-30T20:06:37.139Z,41.20
2019-05-30T20:16:42.855Z,41.40
2019-05-30T20:26:50.884Z,41.50
2019-05-30T20:36:56.130Z,41.70
2019-05-30T20:47:01.481Z,41.90
2019-05-30T20:57:07.320Z,42.20
2019-05-30T21:07:12.807Z,42.40
2019-05-30T21:17:18.572Z,42.70
2019-05-30T21:27:24.003Z,43.10
2019-05-30T21:37:29.281Z,43.20
2019-05-30T21:47:34.795Z,43.20
2019-05-30T21:57:40.124Z,43.60
2019-05-30T22:07:45.471Z,43.60
2019-05-30T22:17:52.024Z,43.80
2019-05-30T22:27:58.037Z,43.80
2019-05-30T22:38:03.355Z,44.10
2019-05-30T22:48:08.605Z,44.40
2019-05-30T22:58:14.152Z,44.60
2019-05-30T23:08:19.522Z,44.70
2019-05-30T23:18:24.854Z,45.00
2019-05-30T23:28:30.268Z,45.10
2019-05-30T23:38:35.707Z,45.30
2019-05-30T23:48:41.194Z,45.50
2019-05-30T23:58:46.806Z,45.70
